sensor_id;sensor_type;location;lat;lon;timestamp;P1;durP1;ratioP1;P2;durP2;ratioP2
12654;SDS011;6392;44.644;11.448;2024-03-23T00:54:20;13.50;;;9.10;;
12654;SDS011;6392;44.644;11.448;2024-03-23T00:56:47;15.57;;;9.90;;
12654;SDS011;6392;44.644;11.448;2024-03-23T00:59:13;12.27;;;9.03;;
12654;SDS011;6392;44.644;11.448;2024-03-23T01:01:40;12.90;;;9.50;;
12654;SDS011;6392;44.644;11.448;2024-03-23T01:04:07;13.77;;;9.87;;
12654;SDS011;6392;44.644;11.448;2024-03-23T01:06:34;13.77;;;9.87;;
12654;SDS011;6392;44.644;11.448;2024-03-23T01:09:00;16.23;;;10.00;;
12654;SDS011;6392;44.644;11.448;2024-03-23T01:11:28;12.90;;;9.53;;
12654;SDS011;6392;44.644;11.448;2024-03-23T01:13:54;13.07;;;9.97;;
12654;SDS011;6392;44.644;11.448;2024-03-23T01:16:22;15.33;;;10.07;;
12654;SDS011;6392;44.644;11.448;2024-03-23T01:18:48;11.57;;;6.53;;
12654;SDS011;6392;44.644;11.448;2024-03-23T01:21:15;11.20;;;8.27;;
12654;SDS011;6392;44.644;11.448;2024-03-23T01:23:41;13.67;;;9.07;;
12654;SDS011;6392;44.644;11.448;2024-03-23T01:26:08;14.43;;;10.30;;
12654;SDS011;6392;44.644;11.448;2024-03-23T01:28:36;13.67;;;10.20;;
12654;SDS011;6392;44.644;11.448;2024-03-23T01:31:03;16.67;;;12.30;;
12654;SDS011;6392;44.644;11.448;2024-03-23T01:33:29;17.30;;;11.60;;
12654;SDS011;6392;44.644;11.448;2024-03-23T01:35:56;15.40;;;12.00;;
12654;SDS011;6392;44.644;11.448;2024-03-23T01:38:22;18.03;;;11.43;;
12654;SDS011;6392;44.644;11.448;2024-03-23T01:40:49;17.33;;;11.00;;
12654;SDS011;6392;44.644;11.448;2024-03-23T01:43:21;16.77;;;10.50;;
12654;SDS011;6392;44.644;11.448;2024-03-23T01:45:49;15.70;;;10.70;;
12654;SDS011;6392;44.644;11.448;2024-03-23T01:48:16;14.33;;;10.33;;
12654;SDS011;6392;44.644;11.448;2024-03-23T01:50:43;16.43;;;10.30;;
12654;SDS011;6392;44.644;11.448;2024-03-23T01:53:09;13.13;;;9.30;;
12654;SDS011;6392;44.644;11.448;2024-03-23T01:55:36;14.73;;;9.67;;
12654;SDS011;6392;44.644;11.448;2024-03-23T01:58:04;15.17;;;10.47;;
12654;SDS011;6392;44.644;11.448;2024-03-23T02:00:31;15.03;;;9.43;;
12654;SDS011;6392;44.644;11.448;2024-03-23T02:02:58;12.03;;;8.50;;
12654;SDS011;6392;44.644;11.448;2024-03-23T02:05:25;16.80;;;9.97;;
12654;SDS011;6392;44.644;11.448;2024-03-23T02:07:52;11.27;;;9.10;;
12654;SDS011;6392;44.644;11.448;2024-03-23T02:10:19;11.63;;;8.60;;
12654;SDS011;6392;44.644;11.448;2024-03-23T02:12:45;12.23;;;9.20;;
12654;SDS011;6392;44.644;11.448;2024-03-23T02:15:12;14.10;;;10.33;;
12654;SDS011;6392;44.644;11.448;2024-03-23T02:17:39;11.20;;;7.73;;
12654;SDS011;6392;44.644;11.448;2024-03-23T02:20:08;14.40;;;10.37;;
12654;SDS011;6392;44.644;11.448;2024-03-23T02:22:35;14.10;;;10.23;;
12654;SDS011;6392;44.644;11.448;2024-03-23T02:25:05;15.30;;;10.93;;
12654;SDS011;6392;44.644;11.448;2024-03-23T02:27:32;13.90;;;9.37;;
12654;SDS011;6392;44.644;11.448;2024-03-23T02:29:59;15.87;;;10.80;;
12654;SDS011;6392;44.644;11.448;2024-03-23T02:32:26;15.37;;;10.13;;
12654;SDS011;6392;44.644;11.448;2024-03-23T02:34:53;13.40;;;10.13;;
12654;SDS011;6392;44.644;11.448;2024-03-23T02:37:19;17.20;;;11.30;;
12654;SDS011;6392;44.644;11.448;2024-03-23T02:39:46;14.63;;;9.00;;
12654;SDS011;6392;44.644;11.448;2024-03-23T02:42:13;13.27;;;9.07;;
12654;SDS011;6392;44.644;11.448;2024-03-23T02:44:42;12.43;;;8.97;;
12654;SDS011;6392;44.644;11.448;2024-03-23T02:47:08;12.50;;;7.83;;
12654;SDS011;6392;44.644;11.448;2024-03-23T02:49:35;14.47;;;10.00;;
12654;SDS011;6392;44.644;11.448;2024-03-23T02:52:01;14.27;;;9.63;;
12654;SDS011;6392;44.644;11.448;2024-03-23T02:54:28;12.30;;;8.83;;
12654;SDS011;6392;44.644;11.448;2024-03-23T02:56:54;16.07;;;10.30;;
12654;SDS011;6392;44.644;11.448;2024-03-23T02:59:23;14.87;;;10.37;;
12654;SDS011;6392;44.644;11.448;2024-03-23T03:01:49;13.00;;;10.23;;
12654;SDS011;6392;44.644;11.448;2024-03-23T03:04:16;12.57;;;9.23;;
12654;SDS011;6392;44.644;11.448;2024-03-23T03:06:43;12.63;;;9.40;;
12654;SDS011;6392;44.644;11.448;2024-03-23T03:09:12;15.73;;;9.80;;
12654;SDS011;6392;44.644;11.448;2024-03-23T03:11:38;14.20;;;9.43;;
12654;SDS011;6392;44.644;11.448;2024-03-23T03:14:06;15.57;;;9.47;;
12654;SDS011;6392;44.644;11.448;2024-03-23T03:16:34;13.73;;;8.80;;
12654;SDS011;6392;44.644;11.448;2024-03-23T03:19:01;12.87;;;9.07;;
12654;SDS011;6392;44.644;11.448;2024-03-23T03:21:27;13.73;;;8.37;;
12654;SDS011;6392;44.644;11.448;2024-03-23T03:23:54;12.30;;;8.90;;
12654;SDS011;6392;44.644;11.448;2024-03-23T03:26:21;10.27;;;7.77;;
12654;SDS011;6392;44.644;11.448;2024-03-23T03:28:49;13.73;;;9.53;;
12654;SDS011;6392;44.644;11.448;2024-03-23T03:31:15;9.53;;;7.13;;
12654;SDS011;6392;44.644;11.448;2024-03-23T03:33:44;9.43;;;7.33;;
12654;SDS011;6392;44.644;11.448;2024-03-23T03:36:10;11.20;;;7.17;;
12654;SDS011;6392;44.644;11.448;2024-03-23T03:38:38;12.10;;;9.00;;
12654;SDS011;6392;44.644;11.448;2024-03-23T03:41:04;9.80;;;7.50;;
12654;SDS011;6392;44.644;11.448;2024-03-23T03:43:32;12.43;;;8.07;;
12654;SDS011;6392;44.644;11.448;2024-03-23T03:45:58;13.23;;;9.07;;
12654;SDS011;6392;44.644;11.448;2024-03-23T03:48:26;12.27;;;7.93;;
12654;SDS011;6392;44.644;11.448;2024-03-23T03:50:54;11.23;;;8.37;;
12654;SDS011;6392;44.644;11.448;2024-03-23T03:53:21;14.77;;;8.87;;
12654;SDS011;6392;44.644;11.448;2024-03-23T03:55:47;9.67;;;7.60;;
12654;SDS011;6392;44.644;11.448;2024-03-23T03:58:14;10.40;;;7.00;;
12654;SDS011;6392;44.644;11.448;2024-03-23T04:00:40;10.67;;;7.87;;
12654;SDS011;6392;44.644;11.448;2024-03-23T04:03:07;11.37;;;7.53;;
12654;SDS011;6392;44.644;11.448;2024-03-23T04:05:34;11.43;;;7.77;;
12654;SDS011;6392;44.644;11.448;2024-03-23T04:08:02;9.60;;;7.00;;
12654;SDS011;6392;44.644;11.448;2024-03-23T04:10:29;8.90;;;6.63;;
12654;SDS011;6392;44.644;11.448;2024-03-23T04:12:56;9.53;;;7.07;;
12654;SDS011;6392;44.644;11.448;2024-03-23T04:15:22;9.53;;;6.73;;
12654;SDS011;6392;44.644;11.448;2024-03-23T04:17:49;7.77;;;6.13;;
12654;SDS011;6392;44.644;11.448;2024-03-23T04:20:16;13.07;;;6.87;;
12654;SDS011;6392;44.644;11.448;2024-03-23T04:22:43;7.30;;;5.67;;
12654;SDS011;6392;44.644;11.448;2024-03-23T04:25:11;7.47;;;5.60;;
12654;SDS011;6392;44.644;11.448;2024-03-23T04:27:38;9.57;;;6.27;;
12654;SDS011;6392;44.644;11.448;2024-03-23T04:30:06;7.33;;;5.33;;
12654;SDS011;6392;44.644;11.448;2024-03-23T04:32:36;7.83;;;5.73;;
12654;SDS011;6392;44.644;11.448;2024-03-23T04:35:02;9.73;;;6.93;;
12654;SDS011;6392;44.644;11.448;2024-03-23T04:37:31;8.73;;;6.10;;
12654;SDS011;6392;44.644;11.448;2024-03-23T04:39:59;9.57;;;5.80;;
12654;SDS011;6392;44.644;11.448;2024-03-23T04:42:28;8.67;;;5.73;;
12654;SDS011;6392;44.644;11.448;2024-03-23T04:44:55;10.13;;;5.97;;
12654;SDS011;6392;44.644;11.448;2024-03-23T04:47:22;5.47;;;4.63;;
12654;SDS011;6392;44.644;11.448;2024-03-23T04:49:49;6.83;;;4.97;;
12654;SDS011;6392;44.644;11.448;2024-03-23T04:52:16;9.53;;;5.70;;
12654;SDS011;6392;44.644;11.448;2024-03-23T04:54:43;5.70;;;4.50;;
12654;SDS011;6392;44.644;11.448;2024-03-23T04:57:11;8.03;;;5.27;;
12654;SDS011;6392;44.644;11.448;2024-03-23T04:59:40;8.50;;;5.00;;
12654;SDS011;6392;44.644;11.448;2024-03-23T05:02:06;7.90;;;5.07;;
12654;SDS011;6392;44.644;11.448;2024-03-23T05:04:33;9.47;;;4.47;;
12654;SDS011;6392;44.644;11.448;2024-03-23T05:07:02;6.97;;;5.27;;
12654;SDS011;6392;44.644;11.448;2024-03-23T05:09:29;7.70;;;5.10;;
12654;SDS011;6392;44.644;11.448;2024-03-23T05:11:55;8.50;;;5.30;;
12654;SDS011;6392;44.644;11.448;2024-03-23T05:14:22;6.57;;;5.00;;
12654;SDS011;6392;44.644;11.448;2024-03-23T05:16:50;5.70;;;4.43;;
12654;SDS011;6392;44.644;11.448;2024-03-23T05:19:17;9.10;;;5.57;;
12654;SDS011;6392;44.644;11.448;2024-03-23T05:21:43;6.63;;;5.20;;
12654;SDS011;6392;44.644;11.448;2024-03-23T05:24:11;5.70;;;4.50;;
12654;SDS011;6392;44.644;11.448;2024-03-23T05:26:37;7.40;;;4.87;;
12654;SDS011;6392;44.644;11.448;2024-03-23T05:29:04;5.73;;;4.40;;
12654;SDS011;6392;44.644;11.448;2024-03-23T05:31:32;9.17;;;4.43;;
12654;SDS011;6392;44.644;11.448;2024-03-23T05:34:00;7.63;;;4.90;;
12654;SDS011;6392;44.644;11.448;2024-03-23T05:36:26;6.63;;;4.27;;
12654;SDS011;6392;44.644;11.448;2024-03-23T05:38:53;5.53;;;3.73;;
12654;SDS011;6392;44.644;11.448;2024-03-23T05:41:19;7.87;;;4.23;;
12654;SDS011;6392;44.644;11.448;2024-03-23T05:43:48;5.30;;;4.20;;
12654;SDS011;6392;44.644;11.448;2024-03-23T05:46:14;5.97;;;4.60;;
12654;SDS011;6392;44.644;11.448;2024-03-23T05:48:43;5.33;;;4.17;;
12654;SDS011;6392;44.644;11.448;2024-03-23T05:51:10;4.97;;;4.23;;
12654;SDS011;6392;44.644;11.448;2024-03-23T05:53:38;6.70;;;4.53;;
12654;SDS011;6392;44.644;11.448;2024-03-23T05:56:04;6.33;;;4.67;;
12654;SDS011;6392;44.644;11.448;2024-03-23T05:58:32;5.07;;;4.00;;
12654;SDS011;6392;44.644;11.448;2024-03-23T06:00:58;5.17;;;3.97;;
12654;SDS011;6392;44.644;11.448;2024-03-23T06:03:26;5.90;;;4.63;;
12654;SDS011;6392;44.644;11.448;2024-03-23T06:05:52;5.60;;;4.40;;
12654;SDS011;6392;44.644;11.448;2024-03-23T06:08:21;6.00;;;4.80;;
12654;SDS011;6392;44.644;11.448;2024-03-23T06:10:47;6.80;;;4.47;;
12654;SDS011;6392;44.644;11.448;2024-03-23T06:13:15;6.83;;;4.83;;
12654;SDS011;6392;44.644;11.448;2024-03-23T06:15:42;5.67;;;4.70;;
12654;SDS011;6392;44.644;11.448;2024-03-23T06:18:10;6.70;;;5.40;;
12654;SDS011;6392;44.644;11.448;2024-03-23T06:20:37;6.40;;;5.47;;
12654;SDS011;6392;44.644;11.448;2024-03-23T06:23:04;7.03;;;5.30;;
12654;SDS011;6392;44.644;11.448;2024-03-23T06:25:31;6.97;;;6.00;;
12654;SDS011;6392;44.644;11.448;2024-03-23T06:27:58;8.47;;;5.30;;
12654;SDS011;6392;44.644;11.448;2024-03-23T06:30:26;13.20;;;6.13;;
12654;SDS011;6392;44.644;11.448;2024-03-23T06:32:54;7.57;;;5.40;;
12654;SDS011;6392;44.644;11.448;2024-03-23T06:35:20;8.43;;;6.17;;
12654;SDS011;6392;44.644;11.448;2024-03-23T06:37:48;7.20;;;5.53;;
12654;SDS011;6392;44.644;11.448;2024-03-23T06:40:14;10.10;;;5.67;;
12654;SDS011;6392;44.644;11.448;2024-03-23T06:42:42;8.00;;;5.57;;
12654;SDS011;6392;44.644;11.448;2024-03-23T06:45:09;7.50;;;5.63;;
12654;SDS011;6392;44.644;11.448;2024-03-23T06:47:36;8.30;;;5.63;;
12654;SDS011;6392;44.644;11.448;2024-03-23T06:50:02;8.23;;;5.80;;
12654;SDS011;6392;44.644;11.448;2024-03-23T06:52:30;8.20;;;5.43;;
12654;SDS011;6392;44.644;11.448;2024-03-23T06:54:57;7.37;;;5.50;;
12654;SDS011;6392;44.644;11.448;2024-03-23T06:57:24;7.67;;;5.63;;
12654;SDS011;6392;44.644;11.448;2024-03-23T06:59:52;7.40;;;5.70;;
12654;SDS011;6392;44.644;11.448;2024-03-23T07:02:19;7.73;;;6.27;;
12654;SDS011;6392;44.644;11.448;2024-03-23T07:04:45;7.43;;;5.37;;
12654;SDS011;6392;44.644;11.448;2024-03-23T07:07:12;7.43;;;5.60;;
12654;SDS011;6392;44.644;11.448;2024-03-23T07:09:38;7.30;;;5.87;;
12654;SDS011;6392;44.644;11.448;2024-03-23T07:12:05;8.03;;;5.67;;
12654;SDS011;6392;44.644;11.448;2024-03-23T07:14:32;8.23;;;6.20;;
12654;SDS011;6392;44.644;11.448;2024-03-23T07:17:00;9.73;;;6.47;;
12654;SDS011;6392;44.644;11.448;2024-03-23T07:19:26;7.93;;;6.07;;
12654;SDS011;6392;44.644;11.448;2024-03-23T07:21:53;9.53;;;6.30;;
12654;SDS011;6392;44.644;11.448;2024-03-23T07:24:19;10.63;;;7.00;;
12654;SDS011;6392;44.644;11.448;2024-03-23T07:26:46;8.53;;;6.67;;
12654;SDS011;6392;44.644;11.448;2024-03-23T07:29:13;10.20;;;6.80;;
12654;SDS011;6392;44.644;11.448;2024-03-23T07:31:40;10.37;;;6.67;;
12654;SDS011;6392;44.644;11.448;2024-03-23T07:34:08;8.77;;;6.23;;
12654;SDS011;6392;44.644;11.448;2024-03-23T07:36:35;8.07;;;6.17;;
12654;SDS011;6392;44.644;11.448;2024-03-23T07:39:01;7.73;;;6.03;;
12654;SDS011;6392;44.644;11.448;2024-03-23T07:41:29;7.87;;;6.30;;
12654;SDS011;6392;44.644;11.448;2024-03-23T07:43:55;9.00;;;6.20;;
12654;SDS011;6392;44.644;11.448;2024-03-23T07:46:23;9.10;;;6.00;;
12654;SDS011;6392;44.644;11.448;2024-03-23T07:48:50;6.83;;;5.73;;
12654;SDS011;6392;44.644;11.448;2024-03-23T07:51:20;6.73;;;5.20;;
12654;SDS011;6392;44.644;11.448;2024-03-23T07:53:47;7.93;;;5.67;;
12654;SDS011;6392;44.644;11.448;2024-03-23T07:56:15;7.73;;;5.23;;
12654;SDS011;6392;44.644;11.448;2024-03-23T07:58:41;8.50;;;6.17;;
12654;SDS011;6392;44.644;11.448;2024-03-23T08:01:10;7.73;;;5.60;;
12654;SDS011;6392;44.644;11.448;2024-03-23T08:03:37;5.87;;;3.83;;
12654;SDS011;6392;44.644;11.448;2024-03-23T08:06:09;6.93;;;5.10;;
12654;SDS011;6392;44.644;11.448;2024-03-23T08:08:37;8.13;;;5.07;;
12654;SDS011;6392;44.644;11.448;2024-03-23T08:11:05;6.93;;;4.97;;
12654;SDS011;6392;44.644;11.448;2024-03-23T08:13:31;4.87;;;3.60;;
12654;SDS011;6392;44.644;11.448;2024-03-23T08:15:59;6.40;;;3.80;;
12654;SDS011;6392;44.644;11.448;2024-03-23T08:18:26;4.63;;;4.07;;
12654;SDS011;6392;44.644;11.448;2024-03-23T08:20:57;4.00;;;2.93;;
12654;SDS011;6392;44.644;11.448;2024-03-23T08:23:23;7.03;;;3.60;;
12654;SDS011;6392;44.644;11.448;2024-03-23T08:25:52;5.37;;;3.20;;
12654;SDS011;6392;44.644;11.448;2024-03-23T08:28:23;3.63;;;2.83;;
12654;SDS011;6392;44.644;11.448;2024-03-23T08:30:49;4.87;;;3.20;;
12654;SDS011;6392;44.644;11.448;2024-03-23T08:33:16;3.27;;;2.37;;
12654;SDS011;6392;44.644;11.448;2024-03-23T08:35:43;3.07;;;2.40;;
12654;SDS011;6392;44.644;11.448;2024-03-23T08:38:20;4.63;;;2.83;;
12654;SDS011;6392;44.644;11.448;2024-03-23T08:40:46;2.63;;;1.90;;
12654;SDS011;6392;44.644;11.448;2024-03-23T08:43:14;2.77;;;2.20;;
12654;SDS011;6392;44.644;11.448;2024-03-23T08:45:40;5.40;;;2.70;;
12654;SDS011;6392;44.644;11.448;2024-03-23T08:48:07;4.00;;;2.60;;
12654;SDS011;6392;44.644;11.448;2024-03-23T08:50:34;3.60;;;2.47;;
12654;SDS011;6392;44.644;11.448;2024-03-23T08:53:01;3.33;;;2.37;;
12654;SDS011;6392;44.644;11.448;2024-03-23T08:55:28;5.80;;;3.33;;
12654;SDS011;6392;44.644;11.448;2024-03-23T08:57:55;3.80;;;2.60;;
12654;SDS011;6392;44.644;11.448;2024-03-23T09:00:22;3.17;;;2.20;;
12654;SDS011;6392;44.644;11.448;2024-03-23T09:02:49;5.07;;;3.00;;
12654;SDS011;6392;44.644;11.448;2024-03-23T09:05:15;4.10;;;3.03;;
12654;SDS011;6392;44.644;11.448;2024-03-23T09:07:43;3.30;;;2.30;;
12654;SDS011;6392;44.644;11.448;2024-03-23T09:10:09;6.47;;;2.57;;
12654;SDS011;6392;44.644;11.448;2024-03-23T09:12:36;3.77;;;3.07;;
12654;SDS011;6392;44.644;11.448;2024-03-23T09:15:02;3.80;;;2.87;;
12654;SDS011;6392;44.644;11.448;2024-03-23T09:17:31;4.30;;;3.20;;
12654;SDS011;6392;44.644;11.448;2024-03-23T09:19:57;5.17;;;3.30;;
12654;SDS011;6392;44.644;11.448;2024-03-23T09:22:24;3.70;;;2.97;;
12654;SDS011;6392;44.644;11.448;2024-03-23T09:24:50;3.80;;;2.50;;
12654;SDS011;6392;44.644;11.448;2024-03-23T09:27:17;4.33;;;2.53;;
12654;SDS011;6392;44.644;11.448;2024-03-23T09:29:43;3.77;;;3.13;;
12654;SDS011;6392;44.644;11.448;2024-03-23T09:32:10;5.73;;;4.30;;
12654;SDS011;6392;44.644;11.448;2024-03-23T09:34:37;5.77;;;4.73;;
12654;SDS011;6392;44.644;11.448;2024-03-23T09:37:04;3.93;;;3.27;;
12654;SDS011;6392;44.644;11.448;2024-03-23T09:39:30;7.97;;;4.20;;
12654;SDS011;6392;44.644;11.448;2024-03-23T09:41:58;5.30;;;4.10;;
12654;SDS011;6392;44.644;11.448;2024-03-23T09:44:24;6.57;;;4.83;;
12654;SDS011;6392;44.644;11.448;2024-03-23T09:46:54;7.30;;;4.70;;
12654;SDS011;6392;44.644;11.448;2024-03-23T09:49:21;5.17;;;4.17;;
12654;SDS011;6392;44.644;11.448;2024-03-23T09:51:49;5.07;;;4.40;;
12654;SDS011;6392;44.644;11.448;2024-03-23T09:54:16;7.27;;;3.63;;
12654;SDS011;6392;44.644;11.448;2024-03-23T09:56:43;4.40;;;3.30;;
12654;SDS011;6392;44.644;11.448;2024-03-23T09:59:09;4.20;;;3.10;;
12654;SDS011;6392;44.644;11.448;2024-03-23T10:01:36;4.33;;;3.70;;
12654;SDS011;6392;44.644;11.448;2024-03-23T10:04:02;5.57;;;4.10;;
12654;SDS011;6392;44.644;11.448;2024-03-23T10:06:30;5.70;;;3.83;;
12654;SDS011;6392;44.644;11.448;2024-03-23T10:08:58;7.07;;;3.37;;
12654;SDS011;6392;44.644;11.448;2024-03-23T10:11:25;4.87;;;4.10;;
12654;SDS011;6392;44.644;11.448;2024-03-23T10:13:52;4.33;;;3.80;;
12654;SDS011;6392;44.644;11.448;2024-03-23T10:16:22;5.70;;;3.80;;
12654;SDS011;6392;44.644;11.448;2024-03-23T10:18:49;6.57;;;4.10;;
12654;SDS011;6392;44.644;11.448;2024-03-23T10:21:16;4.97;;;4.20;;
12654;SDS011;6392;44.644;11.448;2024-03-23T10:23:43;3.43;;;3.00;;
12654;SDS011;6392;44.644;11.448;2024-03-23T10:28:56;4.30;;;3.00;;
12654;SDS011;6392;44.644;11.448;2024-03-23T10:31:26;4.90;;;3.60;;
12654;SDS011;6392;44.644;11.448;2024-03-23T10:33:53;5.53;;;4.10;;
12654;SDS011;6392;44.644;11.448;2024-03-23T10:36:21;7.57;;;4.70;;
12654;SDS011;6392;44.644;11.448;2024-03-23T10:38:49;4.23;;;3.63;;
12654;SDS011;6392;44.644;11.448;2024-03-23T10:41:20;5.87;;;4.40;;
12654;SDS011;6392;44.644;11.448;2024-03-23T10:43:48;8.63;;;4.77;;
12654;SDS011;6392;44.644;11.448;2024-03-23T10:46:15;4.93;;;4.07;;
12654;SDS011;6392;44.644;11.448;2024-03-23T10:48:42;5.43;;;3.73;;
12654;SDS011;6392;44.644;11.448;2024-03-23T10:51:10;5.37;;;4.03;;
12654;SDS011;6392;44.644;11.448;2024-03-23T10:53:37;5.57;;;4.23;;
12654;SDS011;6392;44.644;11.448;2024-03-23T10:56:04;5.20;;;3.90;;
12654;SDS011;6392;44.644;11.448;2024-03-23T10:58:33;7.80;;;4.60;;
12654;SDS011;6392;44.644;11.448;2024-03-23T11:01:07;7.60;;;4.10;;
12654;SDS011;6392;44.644;11.448;2024-03-23T11:03:37;7.33;;;4.63;;
12654;SDS011;6392;44.644;11.448;2024-03-23T11:06:06;5.00;;;4.17;;
12654;SDS011;6392;44.644;11.448;2024-03-23T11:08:34;6.47;;;4.27;;
12654;SDS011;6392;44.644;11.448;2024-03-23T11:11:17;6.87;;;5.23;;
12654;SDS011;6392;44.644;11.448;2024-03-23T11:13:44;7.47;;;4.50;;
12654;SDS011;6392;44.644;11.448;2024-03-23T11:16:16;4.30;;;3.30;;
12654;SDS011;6392;44.644;11.448;2024-03-23T11:18:49;6.83;;;4.30;;
12654;SDS011;6392;44.644;11.448;2024-03-23T11:24:19;7.30;;;4.60;;
12654;SDS011;6392;44.644;11.448;2024-03-23T11:26:48;6.30;;;4.17;;
12654;SDS011;6392;44.644;11.448;2024-03-23T11:29:14;4.83;;;3.60;;
12654;SDS011;6392;44.644;11.448;2024-03-23T11:31:48;7.10;;;4.60;;
12654;SDS011;6392;44.644;11.448;2024-03-23T11:34:15;4.93;;;3.63;;
12654;SDS011;6392;44.644;11.448;2024-03-23T11:36:43;6.10;;;3.67;;
12654;SDS011;6392;44.644;11.448;2024-03-23T11:39:14;6.00;;;4.60;;
12654;SDS011;6392;44.644;11.448;2024-03-23T11:41:46;7.47;;;4.60;;
12654;SDS011;6392;44.644;11.448;2024-03-23T11:44:16;6.53;;;4.83;;
12654;SDS011;6392;44.644;11.448;2024-03-23T11:46:44;6.03;;;4.07;;
12654;SDS011;6392;44.644;11.448;2024-03-23T11:49:22;5.77;;;4.47;;
12654;SDS011;6392;44.644;11.448;2024-03-23T11:51:49;8.57;;;4.50;;
12654;SDS011;6392;44.644;11.448;2024-03-23T11:54:20;2.60;;;2.20;;
12654;SDS011;6392;44.644;11.448;2024-03-23T11:56:55;6.30;;;4.33;;
12654;SDS011;6392;44.644;11.448;2024-03-23T11:59:32;5.47;;;4.13;;
12654;SDS011;6392;44.644;11.448;2024-03-23T12:02:05;4.90;;;3.57;;
12654;SDS011;6392;44.644;11.448;2024-03-23T12:04:34;6.00;;;3.97;;
12654;SDS011;6392;44.644;11.448;2024-03-23T12:07:15;6.70;;;4.40;;
12654;SDS011;6392;44.644;11.448;2024-03-23T12:09:44;7.90;;;4.63;;
12654;SDS011;6392;44.644;11.448;2024-03-23T12:12:13;6.63;;;4.40;;
12654;SDS011;6392;44.644;11.448;2024-03-23T12:14:40;5.90;;;4.27;;
12654;SDS011;6392;44.644;11.448;2024-03-23T12:17:09;4.13;;;3.70;;
12654;SDS011;6392;44.644;11.448;2024-03-23T12:19:38;5.33;;;4.20;;
12654;SDS011;6392;44.644;11.448;2024-03-23T12:22:06;6.67;;;4.60;;
12654;SDS011;6392;44.644;11.448;2024-03-23T12:24:33;5.30;;;4.00;;
12654;SDS011;6392;44.644;11.448;2024-03-23T12:27:01;6.93;;;5.00;;
12654;SDS011;6392;44.644;11.448;2024-03-23T12:29:29;7.63;;;5.10;;
12654;SDS011;6392;44.644;11.448;2024-03-23T12:31:59;7.23;;;4.80;;
12654;SDS011;6392;44.644;11.448;2024-03-23T12:34:25;6.83;;;4.47;;
12654;SDS011;6392;44.644;11.448;2024-03-23T12:36:57;4.70;;;4.13;;
12654;SDS011;6392;44.644;11.448;2024-03-23T12:39:23;6.73;;;3.90;;
12654;SDS011;6392;44.644;11.448;2024-03-23T12:41:50;3.90;;;3.30;;
12654;SDS011;6392;44.644;11.448;2024-03-23T12:44:17;4.83;;;3.80;;
12654;SDS011;6392;44.644;11.448;2024-03-23T12:46:45;5.80;;;4.00;;
12654;SDS011;6392;44.644;11.448;2024-03-23T12:49:12;5.07;;;3.90;;
12654;SDS011;6392;44.644;11.448;2024-03-23T12:51:41;6.63;;;4.17;;
12654;SDS011;6392;44.644;11.448;2024-03-23T12:54:19;4.93;;;4.03;;
12654;SDS011;6392;44.644;11.448;2024-03-23T12:56:47;4.87;;;3.60;;
12654;SDS011;6392;44.644;11.448;2024-03-23T12:59:14;4.40;;;3.67;;
12654;SDS011;6392;44.644;11.448;2024-03-23T13:01:41;4.07;;;3.10;;
12654;SDS011;6392;44.644;11.448;2024-03-23T13:04:08;5.47;;;3.90;;
12654;SDS011;6392;44.644;11.448;2024-03-23T13:06:36;4.93;;;3.47;;
12654;SDS011;6392;44.644;11.448;2024-03-23T13:09:03;4.53;;;3.60;;
12654;SDS011;6392;44.644;11.448;2024-03-23T13:11:32;4.40;;;3.53;;
12654;SDS011;6392;44.644;11.448;2024-03-23T13:13:58;8.00;;;3.53;;
12654;SDS011;6392;44.644;11.448;2024-03-23T13:16:26;5.03;;;3.40;;
12654;SDS011;6392;44.644;11.448;2024-03-23T13:18:52;5.63;;;3.67;;
12654;SDS011;6392;44.644;11.448;2024-03-23T13:21:20;4.37;;;3.23;;
12654;SDS011;6392;44.644;11.448;2024-03-23T13:23:47;3.40;;;2.93;;
12654;SDS011;6392;44.644;11.448;2024-03-23T13:26:16;4.03;;;3.13;;
12654;SDS011;6392;44.644;11.448;2024-03-23T13:28:44;4.90;;;2.93;;
12654;SDS011;6392;44.644;11.448;2024-03-23T13:31:12;4.90;;;3.20;;
12654;SDS011;6392;44.644;11.448;2024-03-23T13:33:38;6.80;;;3.90;;
12654;SDS011;6392;44.644;11.448;2024-03-23T13:36:09;4.70;;;2.77;;
12654;SDS011;6392;44.644;11.448;2024-03-23T13:38:35;4.67;;;3.80;;
12654;SDS011;6392;44.644;11.448;2024-03-23T13:41:03;4.33;;;2.90;;
12654;SDS011;6392;44.644;11.448;2024-03-23T13:43:31;3.90;;;3.20;;
12654;SDS011;6392;44.644;11.448;2024-03-23T13:46:01;3.97;;;3.13;;
12654;SDS011;6392;44.644;11.448;2024-03-23T13:48:28;4.87;;;3.30;;
12654;SDS011;6392;44.644;11.448;2024-03-23T13:50:59;4.07;;;3.50;;
12654;SDS011;6392;44.644;11.448;2024-03-23T13:53:27;6.00;;;3.07;;
12654;SDS011;6392;44.644;11.448;2024-03-23T13:55:59;4.30;;;3.03;;
12654;SDS011;6392;44.644;11.448;2024-03-23T13:58:26;3.43;;;3.13;;
12654;SDS011;6392;44.644;11.448;2024-03-23T14:00:53;4.47;;;2.73;;
12654;SDS011;6392;44.644;11.448;2024-03-23T14:03:24;3.87;;;3.10;;
12654;SDS011;6392;44.644;11.448;2024-03-23T14:05:57;6.30;;;3.30;;
12654;SDS011;6392;44.644;11.448;2024-03-23T14:08:25;4.27;;;3.03;;
12654;SDS011;6392;44.644;11.448;2024-03-23T14:10:53;3.77;;;2.20;;
12654;SDS011;6392;44.644;11.448;2024-03-23T14:13:19;3.23;;;2.00;;
12654;SDS011;6392;44.644;11.448;2024-03-23T14:15:46;3.63;;;2.17;;
12654;SDS011;6392;44.644;11.448;2024-03-23T14:18:17;5.00;;;2.23;;
12654;SDS011;6392;44.644;11.448;2024-03-23T14:20:46;3.73;;;2.57;;
12654;SDS011;6392;44.644;11.448;2024-03-23T14:23:12;4.87;;;2.37;;
12654;SDS011;6392;44.644;11.448;2024-03-23T14:25:39;2.43;;;1.90;;
12654;SDS011;6392;44.644;11.448;2024-03-23T14:28:06;2.30;;;1.90;;
12654;SDS011;6392;44.644;11.448;2024-03-23T14:30:38;3.47;;;2.10;;
12654;SDS011;6392;44.644;11.448;2024-03-23T14:33:05;2.33;;;1.87;;
12654;SDS011;6392;44.644;11.448;2024-03-23T14:35:32;2.53;;;1.70;;
12654;SDS011;6392;44.644;11.448;2024-03-23T14:38:00;3.90;;;1.70;;
12654;SDS011;6392;44.644;11.448;2024-03-23T14:40:28;2.07;;;1.80;;
12654;SDS011;6392;44.644;11.448;2024-03-23T14:42:55;3.33;;;1.77;;
12654;SDS011;6392;44.644;11.448;2024-03-23T14:45:22;4.60;;;1.80;;
12654;SDS011;6392;44.644;11.448;2024-03-23T14:47:50;5.27;;;1.80;;
12654;SDS011;6392;44.644;11.448;2024-03-23T14:50:17;2.17;;;1.63;;
12654;SDS011;6392;44.644;11.448;2024-03-23T14:52:44;2.77;;;1.70;;
12654;SDS011;6392;44.644;11.448;2024-03-23T14:55:13;4.93;;;2.17;;
12654;SDS011;6392;44.644;11.448;2024-03-23T14:57:39;2.90;;;1.80;;
12654;SDS011;6392;44.644;11.448;2024-03-23T15:00:07;3.03;;;1.90;;
12654;SDS011;6392;44.644;11.448;2024-03-23T15:02:35;1.87;;;1.57;;
12654;SDS011;6392;44.644;11.448;2024-03-23T15:05:03;4.17;;;1.87;;
12654;SDS011;6392;44.644;11.448;2024-03-23T15:07:29;6.83;;;1.73;;
12654;SDS011;6392;44.644;11.448;2024-03-23T15:09:56;4.83;;;1.57;;
12654;SDS011;6392;44.644;11.448;2024-03-23T15:12:24;5.50;;;1.97;;
12654;SDS011;6392;44.644;11.448;2024-03-23T15:14:51;2.77;;;1.63;;
12654;SDS011;6392;44.644;11.448;2024-03-23T15:17:17;5.70;;;1.57;;
12654;SDS011;6392;44.644;11.448;2024-03-23T15:19:44;5.43;;;1.63;;
12654;SDS011;6392;44.644;11.448;2024-03-23T15:22:10;3.87;;;1.93;;
12654;SDS011;6392;44.644;11.448;2024-03-23T15:24:37;8.07;;;2.17;;
12654;SDS011;6392;44.644;11.448;2024-03-23T15:27:03;4.57;;;1.87;;
12654;SDS011;6392;44.644;11.448;2024-03-23T15:29:35;2.37;;;1.57;;
12654;SDS011;6392;44.644;11.448;2024-03-23T15:32:01;3.30;;;1.77;;
12654;SDS011;6392;44.644;11.448;2024-03-23T15:34:29;5.50;;;2.00;;
12654;SDS011;6392;44.644;11.448;2024-03-23T15:36:55;4.47;;;1.60;;
12654;SDS011;6392;44.644;11.448;2024-03-23T15:39:22;2.80;;;1.50;;
12654;SDS011;6392;44.644;11.448;2024-03-23T15:41:48;5.40;;;1.73;;
12654;SDS011;6392;44.644;11.448;2024-03-23T15:44:15;3.73;;;1.20;;